Time;durP1;ratioP1;P1;durP2;ratioP2;P2;SDS_P1;SDS_P2;PMS_P1;PMS_P2;Temp;Humidity;BMP_temperature;BMP_pressure;BME280_temperature;BME280_humidity;BME280_pressure;Samples;Min_cycle;Max_cycle;Signal;HPM_P1;HPM_P2
2020/12/25 00:01:46;;;;;;;9.47;2.97;;;4.10;99.90;;;-146.47;100.00;66290.13;4948671;28;20270;-77
2020/12/25 00:04:31;;;;;;;13.13;2.70;;;4.00;99.90;;;-146.47;100.00;66290.13;4934692;29;20671;-78
2020/12/25 00:07:17;;;;;;;16.10;3.40;;;4.00;99.90;;;-146.47;100.00;66290.13;4934567;29;20299;-78
2020/12/25 00:10:02;;;;;;;10.90;3.13;;;3.90;99.90;;;-146.47;100.00;66290.13;4934728;29;20298;-79
2020/12/25 00:12:48;;;;;;;9.40;3.07;;;3.90;99.90;;;-146.47;100.00;66290.13;4938984;29;20797;-78
2020/12/25 00:15:34;;;;;;;12.80;3.33;;;3.80;99.90;;;-146.47;100.00;66290.13;4943131;29;20298;-79
2020/12/25 00:18:19;;;;;;;10.07;3.13;;;3.80;99.90;;;-146.47;100.00;66290.13;4939320;29;20214;-79
2020/12/25 00:21:05;;;;;;;12.27;3.10;;;3.70;99.90;;;-146.47;100.00;66290.13;4937668;29;20206;-78
2020/12/25 00:23:51;;;;;;;13.43;2.87;;;3.70;99.90;;;-146.47;100.00;66290.13;4935541;29;20226;-78
2020/12/25 00:26:36;;;;;;;12.13;3.27;;;3.60;99.90;;;-146.47;100.00;66290.13;4937680;29;21071;-78
2020/12/25 00:29:21;;;;;;;16.03;4.23;;;3.60;99.90;;;-146.47;100.00;66290.13;4939683;29;20290;-77
2020/12/25 00:32:07;;;;;;;13.60;2.93;;;3.50;99.90;;;-146.47;100.00;66290.13;4944766;29;20655;-78
2020/12/25 00:34:52;;;;;;;13.27;2.97;;;3.50;99.90;;;-146.47;100.00;66290.13;4933660;29;20274;-78
2020/12/25 00:37:37;;;;;;;10.30;3.40;;;3.50;99.90;;;-146.47;100.00;66290.13;4937356;29;20322;-78
2020/12/25 00:40:22;;;;;;;8.00;3.30;;;3.40;99.90;;;-146.47;100.00;66290.13;4942013;29;20209;-78
2020/12/25 00:43:07;;;;;;;16.27;3.30;;;3.40;99.90;;;-146.47;100.00;66290.13;4949889;29;20606;-78
2020/12/25 00:45:53;;;;;;;12.43;3.10;;;3.30;99.90;;;-146.47;100.00;66290.13;4934592;28;20291;-79
2020/12/25 00:48:39;;;;;;;10.93;3.13;;;3.30;99.90;;;-146.47;100.00;66290.13;4943595;29;20225;-78
2020/12/25 00:51:24;;;;;;;9.73;3.00;;;3.20;99.90;;;-146.47;100.00;66290.13;4952491;29;20304;-78
2020/12/25 00:54:10;;;;;;;11.90;2.90;;;3.10;99.90;;;-146.47;100.00;66290.13;4933570;29;20874;-77
2020/12/25 00:56:55;;;;;;;16.20;3.13;;;3.10;99.90;;;-146.47;100.00;66290.13;4937601;29;20700;-77
2020/12/25 00:59:40;;;;;;;10.73;3.00;;;3.10;99.90;;;-146.47;100.00;66290.13;4953588;29;20209;-79
2020/12/25 01:02:28;;;;;;;9.90;2.80;;;3.00;99.90;;;-146.47;100.00;66290.13;4934097;29;20294;-79
2020/12/25 01:05:14;;;;;;;8.70;2.47;;;3.00;99.90;;;-146.47;100.00;66290.13;4946860;29;20202;-78
2020/12/25 01:07:59;;;;;;;12.20;3.00;;;2.90;99.90;;;-146.47;100.00;66290.13;4938277;29;20202;-79
2020/12/25 01:10:45;;;;;;;9.17;2.37;;;2.90;99.90;;;-146.47;100.00;66290.13;4934499;29;20271;-79
2020/12/25 01:13:31;;;;;;;9.53;3.03;;;2.90;99.90;;;-146.47;100.00;66290.13;4936704;28;20292;-78
2020/12/25 01:16:16;;;;;;;10.50;2.67;;;2.80;99.90;;;-146.47;100.00;66290.13;4938957;29;20215;-79
2020/12/25 01:19:01;;;;;;;13.80;3.30;;;2.80;99.90;;;-146.47;100.00;66290.13;4951246;29;20212;-78
2020/12/25 01:21:47;;;;;;;9.43;2.67;;;2.70;99.90;;;-146.47;100.00;66290.13;4938156;29;20270;-78
2020/12/25 01:24:32;;;;;;;9.37;3.13;;;2.70;99.90;;;-146.47;100.00;66290.13;4937258;29;20199;-78
2020/12/25 01:27:18;;;;;;;10.23;3.10;;;2.70;99.90;;;-146.47;100.00;66290.13;4937761;29;20623;-79
2020/12/25 01:30:04;;;;;;;14.47;2.70;;;2.60;99.90;;;-146.47;100.00;66290.13;4953949;28;20711;-79
2020/12/25 01:32:49;;;;;;;9.07;2.57;;;2.60;99.90;;;-146.47;100.00;66290.13;4945283;28;20362;-78
2020/12/25 01:35:35;;;;;;;11.23;2.77;;;2.50;99.90;;;-146.47;100.00;66290.13;4956424;29;20608;-78
2020/12/25 01:38:20;;;;;;;7.43;2.27;;;2.50;99.90;;;-146.47;100.00;66290.13;4956045;29;20210;-78
2020/12/25 01:41:06;;;;;;;10.53;3.03;;;2.50;99.90;;;-146.47;100.00;66290.13;4950781;28;20708;-79
2020/12/25 01:43:51;;;;;;;14.13;3.20;;;2.40;99.90;;;-146.47;100.00;66290.13;4936056;29;20740;-77
2020/12/25 01:46:38;;;;;;;7.00;2.47;;;2.40;99.90;;;-146.47;100.00;66290.13;4950336;28;20227;-78
2020/12/25 01:49:24;;;;;;;6.73;2.63;;;2.40;99.90;;;-146.47;100.00;66290.13;4949709;29;20222;-78
2020/12/25 01:52:09;;;;;;;16.10;2.40;;;2.30;99.90;;;-146.47;100.00;66290.13;4943957;29;20218;-78
2020/12/25 01:54:56;;;;;;;11.27;2.97;;;2.30;99.90;;;-146.47;100.00;66290.13;4939176;29;20230;-79
2020/12/25 01:57:42;;;;;;;8.57;3.00;;;2.30;99.90;;;-146.47;100.00;66290.13;4936703;29;20579;-79
2020/12/25 02:00:29;;;;;;;8.73;3.00;;;2.30;99.90;;;-146.47;100.00;66290.13;4936692;28;20216;-79
2020/12/25 02:03:15;;;;;;;9.83;2.63;;;2.30;99.90;;;-146.47;100.00;66290.13;4936382;29;20306;-77
2020/12/25 02:06:00;;;;;;;14.63;5.13;;;2.20;99.90;;;-146.47;100.00;66290.13;4937157;29;20214;-77
2020/12/25 02:08:46;;;;;;;12.80;3.07;;;2.20;99.90;;;-146.47;100.00;66290.13;4950215;29;20218;-78
2020/12/25 02:11:35;;;;;;;11.80;3.50;;;2.20;99.90;;;-146.47;100.00;66290.13;4937325;29;20263;-76
2020/12/25 02:14:21;;;;;;;18.30;3.00;;;2.20;99.90;;;-146.47;100.00;66290.13;4936088;29;20226;-78
2020/12/25 02:17:06;;;;;;;13.57;2.90;;;2.20;99.90;;;-146.47;100.00;66290.13;4936989;28;20210;-78
2020/12/25 02:19:51;;;;;;;8.13;2.60;;;2.20;99.90;;;-146.47;100.00;66290.13;4936354;29;20267;-78
2020/12/25 02:22:37;;;;;;;9.67;2.63;;;2.20;99.90;;;-146.47;100.00;66290.13;4953869;29;20795;-77
2020/12/25 02:25:22;;;;;;;13.20;3.17;;;2.20;99.90;;;-146.47;100.00;66290.13;4940636;29;20765;-79
2020/12/25 02:28:07;;;;;;;6.97;2.77;;;2.20;99.90;;;-146.47;100.00;66290.13;4936957;29;20697;-78
2020/12/25 02:30:52;;;;;;;10.33;2.63;;;2.20;99.90;;;-146.47;100.00;66290.13;4944415;29;20214;-78
2020/12/25 02:33:37;;;;;;;13.73;4.00;;;2.20;99.90;;;-146.47;100.00;66290.13;4935502;29;20235;-78
2020/12/25 02:36:23;;;;;;;14.33;3.37;;;2.20;99.90;;;-146.47;100.00;66290.13;4942621;29;20235;-78
2020/12/25 02:39:09;;;;;;;6.43;2.53;;;2.30;99.90;;;-146.47;100.00;66290.13;4940318;29;20265;-79
2020/12/25 02:41:54;;;;;;;13.60;3.10;;;2.20;99.90;;;-146.47;100.00;66290.13;4936457;29;20218;-78
2020/12/25 02:44:39;;;;;;;13.77;3.17;;;2.30;99.90;;;-146.47;100.00;66290.13;4953174;29;20221;-78
2020/12/25 02:47:24;;;;;;;10.30;2.73;;;2.30;99.90;;;-146.47;100.00;66290.13;4954772;29;20214;-78
2020/12/25 02:50:10;;;;;;;14.20;3.20;;;2.30;99.90;;;-146.47;100.00;66290.13;4945696;29;20233;-77
2020/12/25 02:52:55;;;;;;;8.67;3.33;;;2.30;99.90;;;-146.47;100.00;66290.13;4938362;29;20234;-77
2020/12/25 02:55:41;;;;;;;11.77;2.80;;;2.30;99.90;;;-146.47;100.00;66290.13;4934861;29;20231;-78
2020/12/25 02:58:26;;;;;;;8.03;2.67;;;2.30;99.90;;;-146.47;100.00;66290.13;4941104;29;20257;-78
2020/12/25 03:01:13;;;;;;;13.97;3.10;;;2.30;99.90;;;-146.47;100.00;66290.13;4954360;28;20225;-78
2020/12/25 03:03:58;;;;;;;11.43;3.13;;;2.40;99.90;;;-146.47;100.00;66290.13;4943526;29;20342;-77
2020/12/25 03:06:43;;;;;;;14.53;2.83;;;2.30;99.90;;;-146.47;100.00;66290.13;4948009;29;20246;-77
2020/12/25 03:09:29;;;;;;;8.03;2.63;;;2.40;99.90;;;-146.47;100.00;66290.13;4948179;29;20218;-78
2020/12/25 03:12:15;;;;;;;11.37;3.10;;;2.40;99.90;;;-146.47;100.00;66290.13;4935636;29;20247;-78
2020/12/25 03:15:00;;;;;;;9.60;3.00;;;2.40;99.90;;;-146.47;100.00;66290.13;4937083;29;20231;-78
2020/12/25 03:17:45;;;;;;;14.80;3.20;;;2.50;99.90;;;-146.47;100.00;66290.13;4949480;28;20212;-78
2020/12/25 03:20:30;;;;;;;10.20;2.53;;;2.50;99.90;;;-146.47;100.00;66290.13;4942923;28;20627;-77
2020/12/25 03:23:15;;;;;;;9.10;2.53;;;2.50;99.90;;;-146.47;100.00;66290.13;4935435;29;20234;-77
2020/12/25 03:26:00;;;;;;;7.30;2.77;;;2.60;99.90;;;-146.47;100.00;66290.13;4934249;29;20202;-78
2020/12/25 03:28:47;;;;;;;7.27;1.90;;;2.60;99.90;;;-146.47;100.00;66290.13;4933664;29;20234;-77
2020/12/25 03:31:32;;;;;;;11.23;2.60;;;2.60;99.90;;;-146.47;100.00;66290.13;4942841;29;20214;-77
2020/12/25 03:34:17;;;;;;;6.17;2.10;;;2.60;99.90;;;-146.47;100.00;66290.13;4935980;29;20283;-78
2020/12/25 03:37:02;;;;;;;6.80;2.20;;;2.60;99.90;;;-146.47;100.00;66290.13;4934338;29;20267;-77
2020/12/25 03:39:47;;;;;;;7.97;2.10;;;2.60;99.90;;;-146.47;100.00;66290.13;4935097;29;20689;-77
2020/12/25 03:42:32;;;;;;;8.47;2.00;;;2.50;99.90;;;-146.47;100.00;66290.13;4934349;29;20253;-78
2020/12/25 03:45:18;;;;;;;6.77;2.10;;;2.50;99.90;;;-146.47;100.00;66290.13;4944115;29;20213;-78
2020/12/25 03:48:04;;;;;;;12.57;1.97;;;2.50;99.90;;;-146.47;100.00;66290.13;4952243;29;20230;-78
2020/12/25 03:50:49;;;;;;;7.33;1.83;;;2.50;99.90;;;-146.47;100.00;66290.13;4953969;29;20261;-78
2020/12/25 03:53:34;;;;;;;6.33;1.73;;;2.50;99.90;;;-146.47;100.00;66290.13;4942556;29;20270;-77
2020/12/25 03:56:21;;;;;;;6.90;1.67;;;2.50;99.90;;;-146.47;100.00;66290.13;4936044;29;20198;-78
2020/12/25 03:59:06;;;;;;;6.10;1.50;;;2.60;99.90;;;-146.47;100.00;66290.13;4946340;29;20699;-78
2020/12/25 04:01:52;;;;;;;7.93;2.37;;;2.60;99.90;;;-146.47;100.00;66290.13;4951854;29;20245;-77
2020/12/25 04:04:37;;;;;;;10.20;1.87;;;2.60;99.90;;;-146.47;100.00;66290.13;4939132;29;20206;-78
2020/12/25 04:07:22;;;;;;;5.10;1.70;;;2.70;99.90;;;-146.47;100.00;66290.13;4944026;29;20298;-78
2020/12/25 04:10:07;;;;;;;7.73;1.57;;;2.70;99.90;;;-146.47;100.00;66290.13;4938713;29;20250;-78
2020/12/25 04:12:53;;;;;;;11.67;2.10;;;2.70;99.90;;;-146.47;100.00;66290.13;4940436;29;20371;-77
2020/12/25 04:15:38;;;;;;;9.57;1.97;;;2.80;99.90;;;-146.47;100.00;66290.13;4938115;29;20598;-78
2020/12/25 04:18:24;;;;;;;8.37;2.00;;;2.80;99.90;;;-146.47;100.00;66290.13;4934640;29;20215;-77
2020/12/25 04:21:11;;;;;;;6.50;1.77;;;2.80;99.90;;;-146.47;100.00;66290.13;4937869;29;20233;-79
2020/12/25 04:23:55;;;;;;;5.73;1.73;;;2.90;99.90;;;-146.47;100.00;66290.13;4946193;29;20258;-77
2020/12/25 04:26:46;;;;;;;7.23;1.90;;;2.90;99.90;;;-146.47;100.00;66290.13;4944758;29;20214;-78
2020/12/25 04:29:31;;;;;;;8.87;1.80;;;2.90;99.90;;;-146.47;100.00;66290.13;4944618;29;20739;-77
2020/12/25 04:32:16;;;;;;;9.10;1.50;;;2.90;99.90;;;-146.47;100.00;66290.13;4947837;29;20615;-78
2020/12/25 04:35:02;;;;;;;6.63;1.70;;;2.90;99.90;;;-146.47;100.00;66290.13;4943458;29;20234;-79
2020/12/25 04:37:47;;;;;;;9.03;1.73;;;2.90;99.90;;;-146.47;100.00;66290.13;4934985;29;20293;-77
2020/12/25 04:40:34;;;;;;;7.13;1.50;;;2.90;99.90;;;-146.47;100.00;66290.13;4946298;29;20210;-78
2020/12/25 04:43:19;;;;;;;5.27;1.50;;;2.90;99.90;;;-146.47;100.00;66290.13;4933341;29;20282;-77
2020/12/25 04:46:04;;;;;;;1.57;1.30;;;2.80;99.90;;;-146.47;100.00;66290.13;4933815;29;20295;-78
2020/12/25 04:48:50;;;;;;;6.07;1.70;;;2.80;99.90;;;-146.47;100.00;66290.13;4935128;29;20269;-78
2020/12/25 04:51:36;;;;;;;3.97;1.30;;;2.80;99.90;;;-146.47;100.00;66290.13;4938015;29;20215;-78
2020/12/25 04:54:21;;;;;;;4.97;1.37;;;2.70;99.90;;;-146.47;100.00;66290.13;4936081;29;20233;-78
2020/12/25 04:57:07;;;;;;;4.70;1.40;;;2.70;99.90;;;-146.47;100.00;66290.13;4937693;29;20283;-78
2020/12/25 04:59:52;;;;;;;1.40;0.90;;;2.60;99.90;;;-146.47;100.00;66290.13;4954249;28;20603;-78
2020/12/25 05:02:37;;;;;;;2.43;1.13;;;2.60;99.90;;;-146.47;100.00;66290.13;4945188;29;20352;-78
2020/12/25 05:05:28;;;;;;;3.17;0.80;;;2.50;99.90;;;-146.47;100.00;66290.13;4943759;29;20197;-77
2020/12/25 05:08:20;;;;;;;4.73;1.20;;;2.50;99.90;;;-146.47;100.00;66290.13;4940344;29;20214;-78
2020/12/25 05:11:06;;;;;;;3.53;1.30;;;2.40;99.90;;;-146.47;100.00;66290.13;4937392;29;20206;-77
2020/12/25 05:13:53;;;;;;;3.03;1.20;;;2.40;99.90;;;-146.47;100.00;66290.13;4938709;28;20275;-78
2020/12/25 05:16:39;;;;;;;5.87;1.77;;;2.30;99.90;;;-146.47;100.00;66290.13;4939625;29;20215;-78
2020/12/25 05:19:27;;;;;;;5.03;1.73;;;2.30;99.90;;;-146.47;100.00;66290.13;4943919;29;20286;-78
2020/12/25 05:22:18;;;;;;;4.20;1.77;;;2.30;99.90;;;-146.47;100.00;66290.13;4941781;29;20270;-77
2020/12/25 05:25:07;;;;;;;5.10;1.80;;;2.30;99.90;;;-146.47;100.00;66290.13;4955789;29;20206;-77
2020/12/25 05:27:55;;;;;;;4.03;1.60;;;2.20;99.90;;;-146.47;100.00;66290.13;4955862;29;20206;-77
2020/12/25 05:30:44;;;;;;;2.90;1.80;;;2.20;99.90;;;-146.47;100.00;66290.13;4946752;29;20219;-77
2020/12/25 05:33:32;;;;;;;2.80;1.70;;;2.20;99.90;;;-146.47;100.00;66290.13;4936844;29;20629;-79
2020/12/25 05:36:18;;;;;;;4.63;1.80;;;2.20;99.90;;;-146.47;100.00;66290.13;4936769;29;20219;-79
2020/12/25 05:39:03;;;;;;;10.17;1.90;;;2.10;99.90;;;-146.47;100.00;66290.13;4943114;29;20214;-78
2020/12/25 05:41:49;;;;;;;7.60;1.80;;;2.10;99.90;;;-146.47;100.00;66290.13;4937171;29;20248;-78
2020/12/25 05:44:40;;;;;;;6.30;2.00;;;2.20;99.90;;;-146.47;100.00;66290.13;4936132;29;20207;-78
2020/12/25 05:47:25;;;;;;;9.00;1.87;;;2.20;99.90;;;-146.47;100.00;66290.13;4936262;29;20247;-77
2020/12/25 05:50:11;;;;;;;3.73;1.70;;;2.20;99.90;;;-146.47;100.00;66290.13;4937184;29;20206;-78
2020/12/25 05:52:56;;;;;;;5.67;1.73;;;2.20;99.90;;;-146.47;100.00;66290.13;4936359;29;20230;-77
2020/12/25 05:55:42;;;;;;;3.67;1.87;;;2.20;99.90;;;-146.47;100.00;66290.13;4934369;29;20225;-78
2020/12/25 05:58:31;;;;;;;5.87;2.37;;;2.30;99.90;;;-146.47;100.00;66290.13;4936580;29;20211;-78
2020/12/25 06:01:17;;;;;;;8.37;3.20;;;2.30;99.90;;;-146.47;100.00;66290.13;4950420;28;20201;-78
2020/12/25 06:04:02;;;;;;;9.80;4.50;;;2.30;99.90;;;-146.47;100.00;66290.13;4940312;29;20721;-76
2020/12/25 06:06:49;;;;;;;8.23;4.57;;;2.30;99.90;;;-146.47;100.00;66290.13;4937421;29;20262;-78
2020/12/25 06:09:34;;;;;;;9.13;3.70;;;2.30;99.90;;;-146.47;100.00;66290.13;4953208;29;20249;-78
2020/12/25 06:12:36;;;;;;;6.50;3.23;;;2.40;99.90;;;-146.47;100.00;66290.13;4948369;29;20924;-80
2020/12/25 06:15:29;;;;;;;7.13;2.90;;;2.40;99.90;;;-146.47;100.00;66290.13;4952299;29;20222;-78
2020/12/25 06:18:31;;;;;;;6.73;2.70;;;2.40;99.90;;;-146.47;100.00;66290.13;4949049;28;20209;-78
2020/12/25 06:21:30;;;;;;;6.93;2.50;;;2.40;99.90;;;-146.47;100.00;66290.13;4953988;29;20213;-78
2020/12/25 06:24:19;;;;;;;5.27;2.17;;;2.50;99.90;;;-146.47;100.00;66290.13;4952295;29;20274;-78
2020/12/25 06:27:05;;;;;;;8.37;2.70;;;2.50;99.90;;;-146.47;100.00;66290.13;4948301;29;20247;-77
2020/12/25 06:29:54;;;;;;;7.53;2.40;;;2.40;99.90;;;-146.47;100.00;66290.13;4953971;29;20217;-78
2020/12/25 06:32:49;;;;;;;5.40;2.10;;;2.40;99.90;;;-146.47;100.00;66290.13;4953589;29;20238;-77
2020/12/25 06:35:37;;;;;;;11.23;3.07;;;2.40;99.90;;;-146.47;100.00;66290.13;4951712;29;20218;-76
2020/12/25 06:38:22;;;;;;;7.50;2.00;;;2.40;99.90;;;-146.47;100.00;66290.13;4954010;29;20201;-77
2020/12/25 06:41:10;;;;;;;7.13;2.20;;;2.40;99.90;;;-146.47;100.00;66290.13;4954449;29;20235;-77
2020/12/25 06:43:56;;;;;;;10.60;1.97;;;2.40;99.90;;;-146.47;100.00;66290.13;4951008;29;21031;-76
2020/12/25 06:46:48;;;;;;;11.90;2.47;;;2.30;99.90;;;-146.47;100.00;66290.13;4951691;29;20210;-78
2020/12/25 06:49:36;;;;;;;8.87;2.50;;;2.30;99.90;;;-146.47;100.00;66290.13;4949893;29;20270;-77
2020/12/25 06:52:31;;;;;;;7.20;2.30;;;2.30;99.90;;;-146.47;100.00;66290.13;4950352;29;20281;-78
2020/12/25 06:55:16;;;;;;;11.80;2.23;;;2.30;99.90;;;-146.47;100.00;66290.13;4945246;29;20223;-78
2020/12/25 06:58:06;;;;;;;8.77;2.23;;;2.30;99.90;;;-146.47;100.00;66290.13;4953249;28;20206;-78
2020/12/25 07:00:57;;;;;;;11.47;2.57;;;2.30;99.90;;;-146.47;100.00;66290.13;4950399;29;20210;-78
2020/12/25 07:03:43;;;;;;;8.80;1.90;;;2.30;99.90;;;-146.47;100.00;66290.13;4949193;29;20227;-78
2020/12/25 07:06:31;;;;;;;8.07;2.33;;;2.30;99.90;;;-146.47;100.00;66290.13;4936300;29;20211;-77
2020/12/25 07:09:17;;;;;;;9.20;2.40;;;2.30;99.90;;;-146.47;100.00;66290.13;4938604;29;20199;-78
2020/12/25 07:12:07;;;;;;;14.20;2.60;;;2.30;99.90;;;-146.47;100.00;66290.13;4949589;28;20657;-79
2020/12/25 07:14:52;;;;;;;8.50;2.73;;;2.30;99.90;;;-146.47;100.00;66290.13;4949924;29;20217;-78
2020/12/25 07:17:37;;;;;;;7.50;2.70;;;2.30;99.90;;;-146.47;100.00;66290.13;4949041;29;20217;-77
2020/12/25 07:20:22;;;;;;;13.30;2.93;;;2.40;99.90;;;-146.47;100.00;66290.13;4951234;29;20250;-78
2020/12/25 07:23:09;;;;;;;10.37;3.43;;;2.40;99.90;;;-146.47;100.00;66290.13;4952036;29;20321;-79
2020/12/25 07:25:58;;;;;;;15.23;2.40;;;2.50;99.90;;;-146.47;100.00;66290.13;4946265;29;20294;-77
2020/12/25 07:28:43;;;;;;;8.93;2.30;;;2.50;99.90;;;-146.47;100.00;66290.13;4948865;29;20234;-78
2020/12/25 07:31:28;;;;;;;9.43;3.03;;;2.50;99.90;;;-146.47;100.00;66290.13;4948998;29;20198;-78
2020/12/25 07:34:18;;;;;;;12.77;2.87;;;2.60;99.90;;;-146.47;100.00;66290.13;4949614;29;20246;-78
2020/12/25 07:37:07;;;;;;;10.43;2.77;;;2.70;99.90;;;-146.47;100.00;66290.13;4949328;29;20217;-78
2020/12/25 07:39:56;;;;;;;9.70;2.80;;;2.70;99.90;;;-146.47;100.00;66290.13;4947763;29;20289;-78
2020/12/25 07:42:41;;;;;;;8.17;2.60;;;2.70;99.90;;;-146.47;100.00;66290.13;4945433;29;20233;-79
2020/12/25 07:45:28;;;;;;;10.97;2.37;;;2.70;99.90;;;-146.47;100.00;66290.13;4945438;28;20210;-79
2020/12/25 07:48:14;;;;;;;11.47;2.73;;;2.70;99.90;;;-146.47;100.00;66290.13;4946274;29;20234;-78
2020/12/25 07:51:02;;;;;;;9.97;2.13;;;2.70;99.90;;;-146.47;100.00;66290.13;4947615;29;20980;-77
2020/12/25 07:53:53;;;;;;;7.87;1.70;;;2.70;99.90;;;-146.47;100.00;66290.13;4941172;29;20742;-78
2020/12/25 07:56:39;;;;;;;5.43;1.50;;;2.60;99.90;;;-146.47;100.00;66290.13;4946466;29;20592;-78
2020/12/25 07:59:26;;;;;;;10.33;2.37;;;2.60;99.90;;;-146.47;100.00;66290.13;4949574;29;20222;-80
2020/12/25 08:02:13;;;;;;;12.23;2.47;;;2.60;99.90;;;-146.47;100.00;66290.13;4948527;29;20214;-79
2020/12/25 08:04:58;;;;;;;9.23;1.87;;;2.50;99.90;;;-146.47;100.00;66290.13;4947264;28;20214;-78
2020/12/25 08:07:43;;;;;;;7.13;2.00;;;2.50;99.90;;;-146.47;100.00;66290.13;4949169;29;20282;-78
2020/12/25 08:10:30;;;;;;;12.90;3.00;;;2.40;99.90;;;-146.47;100.00;66290.13;4948459;29;20245;-79
2020/12/25 08:13:17;;;;;;;12.17;2.30;;;2.40;99.90;;;-146.47;100.00;66290.13;4948255;29;20345;-77
2020/12/25 08:16:03;;;;;;;7.53;2.30;;;2.40;99.90;;;-146.47;100.00;66290.13;4945076;29;20226;-78
2020/12/25 08:18:49;;;;;;;9.83;2.37;;;2.30;99.90;;;-146.47;100.00;66290.13;4947501;29;20851;-78
2020/12/25 08:21:38;;;;;;;11.10;2.33;;;2.30;99.90;;;-146.47;100.00;66290.13;4947598;29;20695;-78
2020/12/25 08:24:23;;;;;;;6.40;3.43;;;2.30;99.90;;;-146.47;100.00;66290.13;4945801;28;20262;-78
2020/12/25 08:27:09;;;;;;;6.47;3.00;;;2.20;99.90;;;-146.47;100.00;66290.13;4945716;28;20297;-78
2020/12/25 08:29:56;;;;;;;10.17;3.17;;;2.20;99.90;;;-146.47;100.00;66290.13;4947022;29;20210;-78
2020/12/25 08:32:41;;;;;;;12.63;3.37;;;2.20;99.90;;;-146.47;100.00;66290.13;4948168;29;20229;-78
2020/12/25 08:35:29;;;;;;;8.43;4.00;;;2.20;99.90;;;-146.47;100.00;66290.13;4944711;28;20290;-78
2020/12/25 08:38:16;;;;;;;12.67;3.17;;;2.20;99.90;;;-146.47;100.00;66290.13;4944789;29;20623;-78
2020/12/25 08:41:06;;;;;;;11.20;3.80;;;2.30;99.90;;;-146.47;100.00;66290.13;4949010;29;20218;-78
2020/12/25 08:43:51;;;;;;;11.20;3.60;;;2.30;99.90;;;-146.47;100.00;66290.13;4949603;29;20226;-78
2020/12/25 08:46:38;;;;;;;13.60;3.60;;;2.40;99.90;;;-146.47;100.00;66290.13;4944737;29;20339;-78
2020/12/25 08:49:27;;;;;;;10.73;3.80;;;2.40;99.90;;;-146.47;100.00;66290.13;4934788;28;20395;-78
2020/12/25 08:52:22;;;;;;;20.07;4.10;;;2.50;99.90;;;-146.47;100.00;66290.13;4945695;29;20217;-79
2020/12/25 08:55:08;;;;;;;25.23;6.17;;;2.50;99.90;;;-146.47;100.00;66290.13;4939507;29;20311;-78
2020/12/25 08:57:54;;;;;;;22.07;8.30;;;2.60;99.90;;;-146.47;100.00;66290.13;4943914;29;20210;-79
2020/12/25 09:00:39;;;;;;;27.33;9.57;;;2.70;99.90;;;-146.47;100.00;66290.13;4941473;28;20764;-78
2020/12/25 09:03:36;;;;;;;30.83;9.53;;;2.90;99.90;;;-146.47;100.00;66290.13;4937336;29;20238;-78
2020/12/25 09:06:21;;;;;;;20.73;10.80;;;3.10;99.90;;;-146.47;100.00;66290.13;4931593;29;20243;-79
2020/12/25 09:09:06;;;;;;;29.27;11.60;;;3.30;99.90;;;-146.47;100.00;66290.13;4962057;28;20254;-79
2020/12/25 09:11:52;;;;;;;20.73;8.40;;;3.50;99.90;;;-146.47;100.00;66290.13;4948151;29;20588;-78
2020/12/25 09:14:37;;;;;;;26.80;11.17;;;3.70;99.90;;;-146.47;100.00;66290.13;4938640;29;20290;-79
2020/12/25 09:17:22;;;;;;;26.33;12.40;;;3.90;99.90;;;-146.47;100.00;66290.13;4946311;29;20219;-78
2020/12/25 09:20:08;;;;;;;32.13;13.67;;;4.00;99.90;;;-146.47;100.00;66290.13;4943105;28;20226;-79
2020/12/25 09:22:53;;;;;;;21.93;9.87;;;4.10;99.90;;;-146.47;100.00;66290.13;4936060;29;20344;-79
2020/12/25 09:25:38;;;;;;;20.70;8.17;;;4.30;99.90;;;-146.47;100.00;66290.13;4935063;28;20223;-78
2020/12/25 09:28:24;;;;;;;28.20;8.87;;;4.40;99.90;;;-146.47;100.00;66290.13;4940935;28;20205;-79
2020/12/25 09:31:12;;;;;;;54.97;11.70;;;4.50;99.90;;;-146.47;100.00;66290.13;4941740;28;20656;-76
2020/12/25 09:33:57;;;;;;;615.67;79.80;;;4.60;99.90;;;-146.47;100.00;66290.13;4945474;28;20237;-77
2020/12/25 09:36:44;;;;;;;1840.07;271.73;;;4.70;99.90;;;-146.47;100.00;66290.13;4935846;29;20222;-78
2020/12/25 09:39:29;;;;;;;94.80;15.83;;;4.90;99.90;;;-146.47;100.00;66290.13;4936173;29;20209;-77
2020/12/25 09:42:14;;;;;;;900.70;117.53;;;5.20;99.90;;;-146.47;100.00;66290.13;4955394;29;20609;-79
2020/12/25 09:45:02;;;;;;;70.60;17.30;;;5.50;99.90;;;-146.47;100.00;66290.13;4949584;29;20266;-77
2020/12/25 09:47:47;;;;;;;26.17;12.77;;;5.80;99.90;;;-146.47;100.00;66290.13;4941720;28;20214;-77
2020/12/25 09:50:32;;;;;;;31.43;9.33;;;6.10;99.90;;;-146.47;100.00;66290.13;4956543;28;20594;-78
2020/12/25 09:53:18;;;;;;;25.90;7.67;;;6.50;99.90;;;-146.47;100.00;66290.13;4933450;29;20230;-78
2020/12/25 09:56:03;;;;;;;23.00;6.57;;;6.80;99.90;;;-146.47;100.00;66290.13;4933754;28;20238;-78
2020/12/25 09:58:48;;;;;;;19.00;6.83;;;7.20;99.90;;;-146.47;100.00;66290.13;4954851;29;20276;-78
2020/12/25 10:01:33;;;;;;;18.13;5.00;;;7.60;99.90;;;-146.47;100.00;66290.13;4948516;28;20243;-77
2020/12/25 10:04:18;;;;;;;7.93;3.17;;;8.00;99.90;;;-146.47;100.00;66290.13;4941369;29;20226;-78
2020/12/25 10:07:04;;;;;;;12.10;3.73;;;8.30;99.90;;;-146.47;100.00;66290.13;4937689;29;20202;-77
2020/12/25 10:09:50;;;;;;;7.37;2.90;;;8.70;99.90;;;-146.47;100.00;66290.13;4952050;29;20269;-78
2020/12/25 10:12:35;;;;;;;10.00;3.40;;;8.90;99.90;;;-146.47;100.00;66290.13;4945192;29;20270;-78
2020/12/25 10:15:21;;;;;;;10.07;3.60;;;9.20;99.90;;;-146.47;100.00;66290.13;4939907;29;20658;-78
2020/12/25 10:18:07;;;;;;;8.30;3.20;;;9.50;99.90;;;-146.47;100.00;66290.13;4943448;29;20214;-78
2020/12/25 10:20:51;;;;;;;5.77;3.50;;;9.90;99.90;;;-146.47;100.00;66290.13;4938367;29;20211;-78
2020/12/25 10:23:37;;;;;;;7.77;3.37;;;10.30;99.90;;;-146.47;100.00;66290.13;4950046;28;20234;-78
2020/12/25 10:26:23;;;;;;;9.67;3.47;;;10.80;99.90;;;-146.47;100.00;66290.13;4948385;28;20241;-78
2020/12/25 10:29:08;;;;;;;6.90;2.20;;;11.40;99.90;;;-146.47;100.00;66290.13;4937992;29;20243;-78
2020/12/25 10:31:53;;;;;;;6.63;2.10;;;12.10;99.90;;;-146.47;100.00;66290.13;4936353;29;20213;-79
2020/12/25 10:34:38;;;;;;;5.93;2.13;;;12.80;99.90;;;-146.47;100.00;66290.13;4936919;29;20709;-78
2020/12/25 10:37:23;;;;;;;7.50;1.90;;;13.40;99.90;;;-146.47;100.00;66290.13;4953976;29;20222;-78
2020/12/25 10:40:09;;;;;;;6.83;2.10;;;14.00;99.90;;;-146.47;100.00;66290.13;4955855;29;20295;-78
2020/12/25 10:42:55;;;;;;;8.60;2.47;;;14.40;99.90;;;-146.47;100.00;66290.13;4937791;29;20259;-78
2020/12/25 10:45:40;;;;;;;7.33;2.10;;;14.60;99.90;;;-146.47;100.00;66290.13;4936600;29;20274;-78
2020/12/25 10:48:25;;;;;;;4.03;2.00;;;14.70;99.90;;;-146.47;100.00;66290.13;4940690;29;20258;-78
2020/12/25 10:51:10;;;;;;;4.80;1.70;;;14.70;99.90;;;-146.47;100.00;66290.13;4942076;28;20214;-78
2020/12/25 10:53:56;;;;;;;4.67;1.80;;;14.60;99.90;;;-146.47;100.00;66290.13;4955856;29;20237;-78
2020/12/25 10:56:41;;;;;;;5.23;1.90;;;14.60;99.90;;;-146.47;100.00;66290.13;4937112;29;20251;-79
2020/12/25 10:59:27;;;;;;;4.87;1.90;;;14.70;99.90;;;-146.47;100.00;66290.13;4939445;29;20214;-79
2020/12/25 11:02:12;;;;;;;4.30;2.10;;;14.80;99.90;;;-146.47;100.00;66290.13;4936217;29;20231;-79
2020/12/25 11:04:57;;;;;;;3.10;1.40;;;14.90;99.90;;;-146.47;100.00;66290.13;4936550;29;20203;-78
2020/12/25 11:07:43;;;;;;;4.00;1.90;;;14.80;99.90;;;-146.47;100.00;66290.13;4943038;28;20218;-79
2020/12/25 11:10:28;;;;;;;3.33;1.73;;;14.80;99.90;;;-146.47;100.00;66290.13;4952328;28;20349;-79
2020/12/25 11:13:13;;;;;;;1.70;1.60;;;14.70;99.90;;;-146.47;100.00;66290.13;4947515;29;20274;-78
2020/12/25 11:15:59;;;;;;;4.30;1.70;;;14.60;99.90;;;-146.47;100.00;66290.13;4942113;29;20748;-78
2020/12/25 11:18:45;;;;;;;6.63;2.20;;;14.50;99.90;;;-146.47;100.00;66290.13;4949772;28;20711;-79
2020/12/25 11:21:32;;;;;;;3.53;1.70;;;14.50;99.90;;;-146.47;100.00;66290.13;4941294;29;20298;-79